TRA11K EHAM-LEBL
Flight info
| Callsign | TRA11K |
|---|---|
| Flight time | 1h 54m |
| Altitude | 35000 |
| Route | WOODY N872 MEDIL DCT KOVIN DCT DUCRA UM728 RESMI UN857 DISAK DCT DIRMO DCT VALKU DCT ATSUP DCT MINSO DCT DEGOL DCT PPG DCT ALBER |
| Aircraft | A21N/M-SDE3FGHIRWY/LB1 |
Departure
| Time | 2026-04-29 19:22 |
|---|---|
| Airport | Amsterdam Airport Schiphol (EHAM) |
Arrival
| Time | 2026-04-29 21:16 |
|---|---|
| Airport | Josep Tarradellas Barcelona-El Prat Airport (LEBL) |
| Time | Latitude | Longitude | Altitude | Speed | Heading |
|---|---|---|---|---|---|
| 2026-04-29 18:33 | 52.30538 | 4.76517 | -1 ft | 0 kts | 59° |
| 2026-04-29 19:09 | 52.30534 | 4.76505 | -1 ft | 4 kts | 59° |
| 2026-04-29 19:09 | 52.30522 | 4.76467 | -1 ft | 4 kts | 75° |
| 2026-04-29 19:09 | 52.30522 | 4.76431 | -1 ft | 3 kts | 133° |
| 2026-04-29 19:09 | 52.30524 | 4.76427 | -1 ft | 0 kts | 136° |
| 2026-04-29 19:13 | 52.30505 | 4.76441 | -1 ft | 6 kts | 156° |
| 2026-04-29 19:13 | 52.30454 | 4.76491 | -1 ft | 9 kts | 148° |
| 2026-04-29 19:13 | 52.30397 | 4.76549 | -1 ft | 9 kts | 148° |
| 2026-04-29 19:13 | 52.30339 | 4.76588 | -1 ft | 10 kts | 185° |
| 2026-04-29 19:14 | 52.30281 | 4.76486 | -1 ft | 15 kts | 238° |
| 2026-04-29 19:14 | 52.30226 | 4.76343 | -1 ft | 15 kts | 238° |
| 2026-04-29 19:14 | 52.30170 | 4.76196 | -1 ft | 16 kts | 238° |
| 2026-04-29 19:14 | 52.30111 | 4.76044 | -1 ft | 16 kts | 238° |
| 2026-04-29 19:15 | 52.30051 | 4.75886 | -1 ft | 17 kts | 238° |
| 2026-04-29 19:15 | 52.30010 | 4.75779 | -1 ft | 17 kts | 238° |
| 2026-04-29 19:15 | 52.29924 | 4.75556 | -1 ft | 18 kts | 238° |
| 2026-04-29 19:15 | 52.29881 | 4.75445 | -1 ft | 17 kts | 238° |
| 2026-04-29 19:16 | 52.29835 | 4.75309 | -1 ft | 12 kts | 252° |
| 2026-04-29 19:16 | 52.29852 | 4.75179 | -1 ft | 13 kts | 304° |
| 2026-04-29 19:16 | 52.29923 | 4.75044 | -1 ft | 18 kts | 311° |
| 2026-04-29 19:16 | 52.30019 | 4.74866 | -1 ft | 22 kts | 311° |
| 2026-04-29 19:17 | 52.30114 | 4.74690 | 6 ft | 17 kts | 311° |
| 2026-04-29 19:17 | 52.30191 | 4.74549 | 10 ft | 18 kts | 311° |
| 2026-04-29 19:17 | 52.30269 | 4.74404 | 10 ft | 16 kts | 310° |
| 2026-04-29 19:17 | 52.30348 | 4.74253 | -1 ft | 15 kts | 311° |
| 2026-04-29 19:18 | 52.30445 | 4.74197 | -1 ft | 18 kts | 0° |
| 2026-04-29 19:18 | 52.30537 | 4.74204 | -1 ft | 22 kts | 3° |
| 2026-04-29 19:18 | 52.30779 | 4.74228 | -1 ft | 24 kts | 2° |
| 2026-04-29 19:18 | 52.30943 | 4.74242 | -1 ft | 24 kts | 4° |
| 2026-04-29 19:19 | 52.31115 | 4.74259 | -1 ft | 26 kts | 3° |
| 2026-04-29 19:19 | 52.31279 | 4.74274 | -1 ft | 17 kts | 3° |
| 2026-04-29 19:19 | 52.31367 | 4.74296 | -1 ft | 12 kts | 32° |
| 2026-04-29 19:19 | 52.31393 | 4.74431 | -1 ft | 14 kts | 87° |
| 2026-04-29 19:20 | 52.31398 | 4.74597 | -1 ft | 15 kts | 87° |
| 2026-04-29 19:20 | 52.31466 | 4.74670 | -1 ft | 13 kts | 359° |
| 2026-04-29 19:20 | 52.31552 | 4.74664 | -1 ft | 12 kts | 356° |
| 2026-04-29 19:20 | 52.31631 | 4.74671 | 0 ft | 11 kts | 13° |
| 2026-04-29 19:21 | 52.31666 | 4.74744 | 0 ft | 9 kts | 83° |
| 2026-04-29 19:21 | 52.31670 | 4.74863 | -2 ft | 17 kts | 87° |
| 2026-04-29 19:21 | 52.31688 | 4.75412 | -4 ft | 81 kts | 86° |
| 2026-04-29 19:21 | 52.31730 | 4.76605 | -1 ft | 131 kts | 86° |
| 2026-04-29 19:22 | 52.31790 | 4.78317 | 135 ft | 157 kts | 86° |
| 2026-04-29 19:22 | 52.31831 | 4.80083 | 702 ft | 157 kts | 95° |
| 2026-04-29 19:22 | 52.31268 | 4.81622 | 1218 ft | 169 kts | 135° |
| 2026-04-29 19:22 | 52.30105 | 4.82418 | 1479 ft | 194 kts | 154° |
| 2026-04-29 19:23 | 52.28777 | 4.83134 | 1825 ft | 209 kts | 153° |
| 2026-04-29 19:23 | 52.27380 | 4.83908 | 2541 ft | 210 kts | 154° |
| 2026-04-29 19:23 | 52.25991 | 4.84630 | 3196 ft | 216 kts | 160° |
| 2026-04-29 19:23 | 52.24441 | 4.84819 | 3690 ft | 234 kts | 174° |
| 2026-04-29 19:24 | 52.22732 | 4.84791 | 4103 ft | 254 kts | 175° |
| 2026-04-29 19:24 | 52.20944 | 4.84747 | 4865 ft | 260 kts | 175° |
| 2026-04-29 19:24 | 52.19094 | 4.84695 | 5667 ft | 264 kts | 176° |
| 2026-04-29 19:24 | 52.17246 | 4.84643 | 6452 ft | 268 kts | 176° |
| 2026-04-29 19:25 | 52.15390 | 4.84595 | 7179 ft | 272 kts | 176° |
| 2026-04-29 19:25 | 52.13454 | 4.84550 | 7898 ft | 277 kts | 175° |
| 2026-04-29 19:25 | 52.11508 | 4.84509 | 8609 ft | 282 kts | 175° |
| 2026-04-29 19:25 | 52.09535 | 4.84467 | 9322 ft | 286 kts | 176° |
| 2026-04-29 19:26 | 52.07531 | 4.84425 | 10038 ft | 290 kts | 176° |
| 2026-04-29 19:26 | 52.05487 | 4.84385 | 10596 ft | 300 kts | 176° |
| 2026-04-29 19:26 | 52.03318 | 4.84265 | 10747 ft | 326 kts | 182° |
| 2026-04-29 19:26 | 52.01025 | 4.83410 | 10992 ft | 348 kts | 197° |
| 2026-04-29 19:27 | 51.98862 | 4.81752 | 12050 ft | 335 kts | 203° |
| 2026-04-29 19:27 | 51.96817 | 4.80104 | 13195 ft | 325 kts | 202° |
| 2026-04-29 19:27 | 51.94782 | 4.78513 | 13961 ft | 326 kts | 201° |
| 2026-04-29 19:27 | 51.92721 | 4.76925 | 14579 ft | 329 kts | 202° |
| 2026-04-29 19:28 | 51.90641 | 4.75325 | 15176 ft | 332 kts | 202° |
| 2026-04-29 19:28 | 51.88550 | 4.73709 | 15774 ft | 334 kts | 202° |
| 2026-04-29 19:28 | 51.86446 | 4.72075 | 16366 ft | 337 kts | 202° |
| 2026-04-29 19:28 | 51.84322 | 4.70421 | 16960 ft | 340 kts | 202° |
| 2026-04-29 19:29 | 51.82187 | 4.68757 | 17571 ft | 343 kts | 202° |
| 2026-04-29 19:29 | 51.80030 | 4.67076 | 18148 ft | 345 kts | 202° |
| 2026-04-29 19:29 | 51.77857 | 4.65384 | 18737 ft | 348 kts | 202° |
| 2026-04-29 19:29 | 51.75665 | 4.63677 | 19249 ft | 351 kts | 202° |
| 2026-04-29 19:30 | 51.73462 | 4.61961 | 19763 ft | 353 kts | 202° |
| 2026-04-29 19:30 | 51.71243 | 4.60237 | 20277 ft | 355 kts | 202° |
| 2026-04-29 19:30 | 51.69005 | 4.58503 | 20790 ft | 358 kts | 202° |
| 2026-04-29 19:30 | 51.66757 | 4.56763 | 21297 ft | 360 kts | 202° |
| 2026-04-29 19:31 | 51.64490 | 4.55013 | 21807 ft | 362 kts | 202° |
| 2026-04-29 19:31 | 51.62210 | 4.53256 | 22318 ft | 365 kts | 202° |
| 2026-04-29 19:31 | 51.59946 | 4.51512 | 22825 ft | 367 kts | 202° |
| 2026-04-29 19:31 | 51.57637 | 4.49734 | 23334 ft | 369 kts | 202° |
| 2026-04-29 19:32 | 51.55314 | 4.47949 | 23836 ft | 372 kts | 202° |
| 2026-04-29 19:32 | 51.52969 | 4.46147 | 24256 ft | 374 kts | 202° |
| 2026-04-29 19:32 | 51.50617 | 4.44340 | 24663 ft | 376 kts | 202° |
| 2026-04-29 19:32 | 51.48244 | 4.42520 | 25067 ft | 379 kts | 202° |
| 2026-04-29 19:33 | 51.45856 | 4.40696 | 25454 ft | 381 kts | 202° |
| 2026-04-29 19:33 | 51.43455 | 4.38865 | 25851 ft | 384 kts | 202° |
| 2026-04-29 19:33 | 51.41001 | 4.36992 | 26239 ft | 386 kts | 202° |
| 2026-04-29 19:33 | 51.38600 | 4.35161 | 26615 ft | 389 kts | 201° |
| 2026-04-29 19:34 | 51.36118 | 4.33273 | 26991 ft | 391 kts | 201° |
| 2026-04-29 19:34 | 51.33674 | 4.31417 | 27207 ft | 398 kts | 201° |
| 2026-04-29 19:34 | 51.31141 | 4.29498 | 27338 ft | 407 kts | 201° |
| 2026-04-29 19:34 | 51.28560 | 4.27541 | 27480 ft | 415 kts | 202° |
| 2026-04-29 19:35 | 51.25923 | 4.25542 | 27616 ft | 423 kts | 202° |
| 2026-04-29 19:35 | 51.23236 | 4.23505 | 27753 ft | 431 kts | 202° |
| 2026-04-29 19:35 | 51.20502 | 4.21434 | 27886 ft | 439 kts | 202° |
| 2026-04-29 19:35 | 51.17719 | 4.19330 | 28020 ft | 446 kts | 201° |
| 2026-04-29 19:36 | 51.14825 | 4.17481 | 28151 ft | 450 kts | 195° |
| 2026-04-29 19:36 | 51.11849 | 4.15857 | 28388 ft | 454 kts | 195° |
| 2026-04-29 19:36 | 51.08851 | 4.14213 | 28677 ft | 457 kts | 195° |
| 2026-04-29 19:36 | 51.05838 | 4.12558 | 28992 ft | 459 kts | 195° |
| 2026-04-29 19:37 | 51.02815 | 4.10898 | 29288 ft | 462 kts | 195° |
| 2026-04-29 19:37 | 51.00755 | 4.09767 | 29489 ft | 463 kts | 195° |
| 2026-04-29 19:37 | 50.96711 | 4.07551 | 29873 ft | 466 kts | 195° |
| 2026-04-29 19:37 | 50.93641 | 4.05874 | 30158 ft | 468 kts | 195° |
| 2026-04-29 19:38 | 50.90555 | 4.04193 | 30420 ft | 470 kts | 195° |
| 2026-04-29 19:38 | 50.87455 | 4.02499 | 30671 ft | 472 kts | 196° |
| 2026-04-29 19:38 | 50.84366 | 4.00689 | 30929 ft | 475 kts | 197° |
| 2026-04-29 19:38 | 50.81296 | 3.98750 | 31255 ft | 476 kts | 199° |
| 2026-04-29 19:39 | 50.78243 | 3.96737 | 31652 ft | 475 kts | 199° |
| 2026-04-29 19:39 | 50.75204 | 3.94706 | 32030 ft | 474 kts | 199° |
| 2026-04-29 19:39 | 50.72166 | 3.92689 | 32406 ft | 473 kts | 199° |
| 2026-04-29 19:39 | 50.69132 | 3.90713 | 32779 ft | 472 kts | 199° |
| 2026-04-29 19:40 | 50.66094 | 3.88770 | 33162 ft | 470 kts | 198° |
| 2026-04-29 19:40 | 50.63060 | 3.86850 | 33544 ft | 469 kts | 198° |
| 2026-04-29 19:40 | 50.60035 | 3.84943 | 33920 ft | 468 kts | 198° |
| 2026-04-29 19:40 | 50.57013 | 3.83038 | 34289 ft | 467 kts | 199° |
| 2026-04-29 19:41 | 50.54013 | 3.81089 | 34619 ft | 466 kts | 200° |
| 2026-04-29 19:41 | 50.51034 | 3.79075 | 34932 ft | 465 kts | 201° |
| 2026-04-29 19:41 | 50.48073 | 3.77025 | 35180 ft | 465 kts | 201° |
| 2026-04-29 19:42 | 50.42206 | 3.72934 | 35227 ft | 458 kts | 201° |
| 2026-04-29 19:42 | 50.36374 | 3.68934 | 35212 ft | 457 kts | 201° |
| 2026-04-29 19:43 | 50.30566 | 3.65015 | 35221 ft | 454 kts | 201° |
| 2026-04-29 19:43 | 50.24771 | 3.61124 | 35225 ft | 453 kts | 201° |
| 2026-04-29 19:44 | 50.18983 | 3.57227 | 35226 ft | 453 kts | 201° |
| 2026-04-29 19:44 | 50.13198 | 3.53343 | 35218 ft | 452 kts | 201° |
| 2026-04-29 19:45 | 50.07418 | 3.49468 | 35219 ft | 452 kts | 201° |
| 2026-04-29 19:45 | 50.01641 | 3.45607 | 35205 ft | 452 kts | 201° |
| 2026-04-29 19:46 | 49.95864 | 3.41761 | 35205 ft | 452 kts | 201° |
| 2026-04-29 19:46 | 49.90087 | 3.37922 | 35208 ft | 451 kts | 202° |
| 2026-04-29 19:47 | 49.84353 | 3.34125 | 35196 ft | 451 kts | 202° |
| 2026-04-29 19:47 | 49.78539 | 3.30287 | 35191 ft | 451 kts | 202° |
| 2026-04-29 19:48 | 49.72811 | 3.26514 | 35189 ft | 451 kts | 202° |
| 2026-04-29 19:48 | 49.67040 | 3.22722 | 35174 ft | 451 kts | 202° |
| 2026-04-29 19:49 | 49.61261 | 3.18927 | 35169 ft | 452 kts | 202° |
| 2026-04-29 19:49 | 49.55478 | 3.15134 | 35160 ft | 452 kts | 202° |
| 2026-04-29 19:50 | 49.49689 | 3.11332 | 35152 ft | 452 kts | 205° |
| 2026-04-29 19:50 | 49.44331 | 3.06311 | 35166 ft | 451 kts | 215° |
| 2026-04-29 19:51 | 49.39106 | 3.00997 | 35176 ft | 450 kts | 215° |
| 2026-04-29 19:51 | 49.33887 | 2.95701 | 35176 ft | 449 kts | 215° |
| 2026-04-29 19:52 | 49.28669 | 2.90435 | 35171 ft | 448 kts | 214° |
| 2026-04-29 19:52 | 49.23463 | 2.85208 | 35173 ft | 447 kts | 216° |
| 2026-04-29 19:53 | 49.18272 | 2.79992 | 35159 ft | 446 kts | 216° |
| 2026-04-29 19:53 | 49.13090 | 2.74783 | 35157 ft | 445 kts | 216° |
| 2026-04-29 19:54 | 49.05338 | 2.67001 | 35154 ft | 444 kts | 216° |
| 2026-04-29 19:54 | 49.00169 | 2.61850 | 35153 ft | 443 kts | 216° |
| 2026-04-29 19:55 | 48.95012 | 2.56731 | 35163 ft | 441 kts | 216° |
| 2026-04-29 19:55 | 48.89879 | 2.51641 | 35162 ft | 440 kts | 216° |
| 2026-04-29 19:56 | 48.84756 | 2.46571 | 35155 ft | 439 kts | 216° |
| 2026-04-29 19:56 | 48.79641 | 2.41524 | 35126 ft | 438 kts | 216° |
| 2026-04-29 19:57 | 48.75392 | 2.37347 | 35121 ft | 438 kts | 216° |
| 2026-04-29 19:57 | 48.69415 | 2.31482 | 35118 ft | 438 kts | 216° |
| 2026-04-29 19:58 | 48.64304 | 2.26471 | 35117 ft | 438 kts | 216° |
| 2026-04-29 19:58 | 48.59188 | 2.21492 | 35125 ft | 437 kts | 213° |
| 2026-04-29 19:59 | 48.54534 | 2.18462 | 35121 ft | 442 kts | 198° |
| 2026-04-29 19:59 | 48.48525 | 2.16484 | 35109 ft | 442 kts | 195° |
| 2026-04-29 20:00 | 48.42508 | 2.14562 | 35106 ft | 441 kts | 195° |
| 2026-04-29 20:00 | 48.36528 | 2.12637 | 35115 ft | 438 kts | 195° |
| 2026-04-29 20:01 | 48.30583 | 2.10760 | 35110 ft | 436 kts | 191° |
| 2026-04-29 20:01 | 48.24509 | 2.10792 | 35099 ft | 441 kts | 175° |
| 2026-04-29 20:02 | 48.18444 | 2.12104 | 35090 ft | 440 kts | 175° |
| 2026-04-29 20:02 | 48.13374 | 2.13142 | 35085 ft | 437 kts | 179° |
| 2026-04-29 20:03 | 48.06334 | 2.13585 | 35051 ft | 436 kts | 181° |
| 2026-04-29 20:03 | 48.00261 | 2.13930 | 35041 ft | 437 kts | 181° |
| 2026-04-29 20:04 | 47.94176 | 2.14289 | 35054 ft | 438 kts | 181° |
| 2026-04-29 20:04 | 47.88094 | 2.14662 | 35045 ft | 437 kts | 181° |
| 2026-04-29 20:05 | 47.82017 | 2.15015 | 35057 ft | 437 kts | 181° |
| 2026-04-29 20:05 | 47.75935 | 2.15361 | 35048 ft | 437 kts | 181° |
| 2026-04-29 20:06 | 47.69867 | 2.15716 | 35056 ft | 436 kts | 181° |
| 2026-04-29 20:06 | 47.63816 | 2.16078 | 35052 ft | 435 kts | 181° |
| 2026-04-29 20:07 | 47.57775 | 2.16434 | 35047 ft | 434 kts | 181° |
| 2026-04-29 20:07 | 47.51737 | 2.16779 | 35042 ft | 434 kts | 181° |
| 2026-04-29 20:08 | 47.46730 | 2.17062 | 35044 ft | 433 kts | 181° |
| 2026-04-29 20:08 | 47.39688 | 2.17466 | 35039 ft | 433 kts | 181° |
| 2026-04-29 20:09 | 47.33675 | 2.17814 | 35034 ft | 432 kts | 181° |
| 2026-04-29 20:09 | 47.27667 | 2.18151 | 35037 ft | 431 kts | 181° |
| 2026-04-29 20:10 | 47.21678 | 2.18497 | 35036 ft | 431 kts | 181° |
| 2026-04-29 20:10 | 47.15693 | 2.18846 | 35027 ft | 430 kts | 181° |
| 2026-04-29 20:11 | 47.09724 | 2.19403 | 35030 ft | 432 kts | 173° |
| 2026-04-29 20:11 | 47.04021 | 2.22073 | 35031 ft | 436 kts | 161° |
| 2026-04-29 20:12 | 46.98403 | 2.25380 | 35026 ft | 435 kts | 161° |
| 2026-04-29 20:12 | 46.92774 | 2.28673 | 35022 ft | 435 kts | 161° |
| 2026-04-29 20:13 | 46.87156 | 2.31936 | 35029 ft | 434 kts | 161° |
| 2026-04-29 20:13 | 46.81546 | 2.35180 | 35027 ft | 433 kts | 161° |
| 2026-04-29 20:14 | 46.75941 | 2.38418 | 35021 ft | 433 kts | 161° |
| 2026-04-29 20:14 | 46.70339 | 2.41654 | 35015 ft | 433 kts | 161° |
| 2026-04-29 20:15 | 46.64741 | 2.44893 | 35006 ft | 433 kts | 161° |
| 2026-04-29 20:15 | 46.59123 | 2.48128 | 34982 ft | 435 kts | 161° |
| 2026-04-29 20:16 | 46.53489 | 2.51360 | 34986 ft | 436 kts | 161° |
| 2026-04-29 20:16 | 46.47847 | 2.54588 | 34992 ft | 436 kts | 161° |
| 2026-04-29 20:17 | 46.42199 | 2.57817 | 34995 ft | 436 kts | 161° |
| 2026-04-29 20:17 | 46.36547 | 2.61047 | 34995 ft | 436 kts | 161° |
| 2026-04-29 20:18 | 46.30895 | 2.64263 | 34997 ft | 436 kts | 161° |
| 2026-04-29 20:18 | 46.25243 | 2.67463 | 34997 ft | 437 kts | 161° |
| 2026-04-29 20:19 | 46.19586 | 2.70661 | 34997 ft | 437 kts | 161° |
| 2026-04-29 20:19 | 46.13926 | 2.73861 | 35002 ft | 437 kts | 161° |
| 2026-04-29 20:20 | 46.08267 | 2.77045 | 34999 ft | 437 kts | 161° |
| 2026-04-29 20:20 | 46.02607 | 2.80228 | 34995 ft | 437 kts | 161° |
| 2026-04-29 20:21 | 45.96927 | 2.83394 | 35001 ft | 437 kts | 162° |
| 2026-04-29 20:21 | 45.91251 | 2.86394 | 35008 ft | 438 kts | 162° |
| 2026-04-29 20:22 | 45.85529 | 2.89362 | 35019 ft | 437 kts | 162° |
| 2026-04-29 20:22 | 45.79809 | 2.92351 | 35025 ft | 437 kts | 162° |
| 2026-04-29 20:23 | 45.74016 | 2.94846 | 35025 ft | 433 kts | 174° |
| 2026-04-29 20:23 | 45.68005 | 2.95091 | 35029 ft | 428 kts | 184° |
| 2026-04-29 20:24 | 45.62100 | 2.94931 | 35038 ft | 428 kts | 183° |
| 2026-04-29 20:24 | 45.56150 | 2.94779 | 35046 ft | 427 kts | 183° |
| 2026-04-29 20:25 | 45.50210 | 2.94631 | 35045 ft | 427 kts | 183° |
| 2026-04-29 20:25 | 45.44276 | 2.94484 | 35049 ft | 426 kts | 183° |
| 2026-04-29 20:26 | 45.38350 | 2.94322 | 35053 ft | 426 kts | 183° |
| 2026-04-29 20:26 | 45.32424 | 2.94163 | 35047 ft | 426 kts | 183° |
| 2026-04-29 20:27 | 45.27462 | 2.94031 | 35047 ft | 425 kts | 183° |
| 2026-04-29 20:27 | 45.20584 | 2.93851 | 35052 ft | 425 kts | 183° |
| 2026-04-29 20:28 | 45.14671 | 2.93694 | 35051 ft | 425 kts | 183° |
| 2026-04-29 20:28 | 45.08756 | 2.93539 | 35052 ft | 425 kts | 182° |
| 2026-04-29 20:29 | 45.02848 | 2.93379 | 35055 ft | 425 kts | 183° |
| 2026-04-29 20:29 | 44.96943 | 2.93223 | 35055 ft | 425 kts | 182° |
| 2026-04-29 20:30 | 44.91035 | 2.93071 | 35054 ft | 425 kts | 182° |
| 2026-04-29 20:30 | 44.85125 | 2.92927 | 35055 ft | 425 kts | 182° |
| 2026-04-29 20:31 | 44.79221 | 2.92624 | 35051 ft | 424 kts | 185° |
| 2026-04-29 20:31 | 44.73369 | 2.92128 | 35051 ft | 424 kts | 185° |
| 2026-04-29 20:32 | 44.67475 | 2.91638 | 35053 ft | 424 kts | 185° |
| 2026-04-29 20:32 | 44.62536 | 2.91272 | 35053 ft | 424 kts | 184° |
| 2026-04-29 20:33 | 44.55680 | 2.90785 | 35052 ft | 424 kts | 184° |
| 2026-04-29 20:33 | 44.49782 | 2.90364 | 35052 ft | 424 kts | 184° |
| 2026-04-29 20:34 | 44.43889 | 2.89937 | 35044 ft | 424 kts | 184° |
| 2026-04-29 20:34 | 44.37994 | 2.89510 | 35043 ft | 424 kts | 184° |
| 2026-04-29 20:35 | 44.32100 | 2.89088 | 35047 ft | 424 kts | 184° |
| 2026-04-29 20:35 | 44.26208 | 2.88665 | 35049 ft | 424 kts | 184° |
| 2026-04-29 20:36 | 44.20322 | 2.88238 | 35049 ft | 424 kts | 184° |
| 2026-04-29 20:36 | 44.14433 | 2.87812 | 35043 ft | 423 kts | 184° |
| 2026-04-29 20:37 | 44.08554 | 2.87396 | 35046 ft | 423 kts | 184° |
| 2026-04-29 20:37 | 44.02673 | 2.86972 | 35045 ft | 423 kts | 184° |
| 2026-04-29 20:38 | 44.01718 | 2.86902 | 35045 ft | 423 kts | 184° |
| 2026-04-29 20:38 | 43.95893 | 2.86479 | 35048 ft | 423 kts | 184° |
| 2026-04-29 20:39 | 43.90019 | 2.86060 | 35045 ft | 423 kts | 184° |
| 2026-04-29 20:39 | 43.84141 | 2.85653 | 35045 ft | 423 kts | 184° |
| 2026-04-29 20:40 | 43.78265 | 2.85244 | 35035 ft | 423 kts | 184° |
| 2026-04-29 20:40 | 43.72378 | 2.85127 | 35043 ft | 423 kts | 181° |
| 2026-04-29 20:41 | 43.66537 | 2.85299 | 35048 ft | 423 kts | 180° |
| 2026-04-29 20:41 | 43.60653 | 2.85477 | 35051 ft | 423 kts | 181° |
| 2026-04-29 20:42 | 43.54773 | 2.85583 | 35036 ft | 423 kts | 181° |
| 2026-04-29 20:42 | 43.48883 | 2.85660 | 35031 ft | 424 kts | 181° |
| 2026-04-29 20:43 | 43.42987 | 2.85735 | 35028 ft | 424 kts | 181° |
| 2026-04-29 20:43 | 43.37080 | 2.85819 | 35023 ft | 425 kts | 181° |
| 2026-04-29 20:44 | 43.31170 | 2.85908 | 35024 ft | 425 kts | 181° |
| 2026-04-29 20:44 | 43.25255 | 2.85995 | 35027 ft | 425 kts | 181° |
| 2026-04-29 20:45 | 43.19338 | 2.86079 | 35030 ft | 425 kts | 181° |
| 2026-04-29 20:45 | 43.13416 | 2.86161 | 35030 ft | 425 kts | 181° |
| 2026-04-29 20:46 | 43.08461 | 2.86238 | 35033 ft | 425 kts | 181° |
| 2026-04-29 20:46 | 43.02579 | 2.86328 | 35036 ft | 425 kts | 181° |
| 2026-04-29 20:47 | 42.96658 | 2.86410 | 35015 ft | 427 kts | 181° |
| 2026-04-29 20:47 | 42.93689 | 2.86450 | 34775 ft | 428 kts | 181° |
| 2026-04-29 20:47 | 42.90685 | 2.86488 | 33909 ft | 434 kts | 181° |
| 2026-04-29 20:48 | 42.87669 | 2.86528 | 33238 ft | 433 kts | 181° |
| 2026-04-29 20:48 | 42.84647 | 2.86571 | 32320 ft | 438 kts | 181° |
| 2026-04-29 20:48 | 42.81588 | 2.86616 | 31563 ft | 439 kts | 181° |
| 2026-04-29 20:48 | 42.78545 | 2.86663 | 31040 ft | 435 kts | 181° |
| 2026-04-29 20:49 | 42.75528 | 2.86702 | 30483 ft | 432 kts | 182° |
| 2026-04-29 20:49 | 42.72554 | 2.86419 | 29914 ft | 427 kts | 186° |
| 2026-04-29 20:49 | 42.69610 | 2.86061 | 29348 ft | 423 kts | 186° |
| 2026-04-29 20:49 | 42.66698 | 2.85714 | 28815 ft | 418 kts | 186° |
| 2026-04-29 20:50 | 42.63820 | 2.85378 | 28286 ft | 413 kts | 186° |
| 2026-04-29 20:50 | 42.60973 | 2.85049 | 27770 ft | 409 kts | 186° |
| 2026-04-29 20:50 | 42.58153 | 2.84725 | 27271 ft | 404 kts | 186° |
| 2026-04-29 20:50 | 42.55370 | 2.84404 | 26768 ft | 400 kts | 186° |
| 2026-04-29 20:51 | 42.52611 | 2.84084 | 26297 ft | 395 kts | 186° |
| 2026-04-29 20:51 | 42.49885 | 2.83768 | 25825 ft | 391 kts | 186° |
| 2026-04-29 20:51 | 42.47189 | 2.83454 | 25372 ft | 387 kts | 186° |
| 2026-04-29 20:51 | 42.44533 | 2.83069 | 24927 ft | 382 kts | 191° |
| 2026-04-29 20:52 | 42.41929 | 2.82423 | 24505 ft | 378 kts | 192° |
| 2026-04-29 20:52 | 42.39347 | 2.81783 | 24086 ft | 376 kts | 192° |
| 2026-04-29 20:52 | 42.36781 | 2.81148 | 23663 ft | 374 kts | 192° |
| 2026-04-29 20:52 | 42.34229 | 2.80518 | 23203 ft | 372 kts | 192° |
| 2026-04-29 20:53 | 42.31688 | 2.79893 | 22780 ft | 370 kts | 191° |
| 2026-04-29 20:53 | 42.29160 | 2.79274 | 22372 ft | 368 kts | 191° |
| 2026-04-29 20:53 | 42.26651 | 2.78661 | 21960 ft | 365 kts | 191° |
| 2026-04-29 20:53 | 42.24153 | 2.78055 | 21557 ft | 363 kts | 191° |
| 2026-04-29 20:54 | 42.19222 | 2.76853 | 20748 ft | 358 kts | 191° |
| 2026-04-29 20:54 | 42.16783 | 2.76250 | 20361 ft | 355 kts | 193° |
| 2026-04-29 20:54 | 42.14449 | 2.75237 | 19958 ft | 352 kts | 205° |
| 2026-04-29 20:55 | 42.12380 | 2.73598 | 19582 ft | 349 kts | 217° |
| 2026-04-29 20:55 | 42.10600 | 2.71392 | 19197 ft | 347 kts | 228° |
| 2026-04-29 20:55 | 42.09007 | 2.68957 | 18815 ft | 346 kts | 228° |
| 2026-04-29 20:55 | 42.07414 | 2.66531 | 18433 ft | 344 kts | 228° |
| 2026-04-29 20:56 | 42.05831 | 2.64124 | 18013 ft | 343 kts | 228° |
| 2026-04-29 20:56 | 42.04255 | 2.61731 | 17625 ft | 341 kts | 228° |
| 2026-04-29 20:56 | 42.02686 | 2.59352 | 17246 ft | 339 kts | 228° |
| 2026-04-29 20:56 | 42.01125 | 2.56989 | 16862 ft | 337 kts | 228° |
| 2026-04-29 20:57 | 41.99573 | 2.54644 | 16487 ft | 335 kts | 228° |
| 2026-04-29 20:57 | 41.98033 | 2.52314 | 16115 ft | 333 kts | 228° |
| 2026-04-29 20:57 | 41.96502 | 2.49995 | 15747 ft | 330 kts | 228° |
| 2026-04-29 20:57 | 41.94982 | 2.47694 | 15377 ft | 328 kts | 228° |
| 2026-04-29 20:58 | 41.93470 | 2.45412 | 15005 ft | 326 kts | 228° |
| 2026-04-29 20:58 | 41.91971 | 2.43146 | 14656 ft | 324 kts | 228° |
| 2026-04-29 20:58 | 41.90481 | 2.40891 | 14297 ft | 322 kts | 228° |
| 2026-04-29 20:58 | 41.89003 | 2.38655 | 13929 ft | 319 kts | 228° |
| 2026-04-29 20:59 | 41.87530 | 2.36429 | 13546 ft | 317 kts | 227° |
| 2026-04-29 20:59 | 41.86069 | 2.34223 | 13187 ft | 316 kts | 227° |
| 2026-04-29 20:59 | 41.84612 | 2.32028 | 12832 ft | 315 kts | 227° |
| 2026-04-29 20:59 | 41.83156 | 2.29843 | 12480 ft | 313 kts | 227° |
| 2026-04-29 21:00 | 41.81708 | 2.27672 | 12143 ft | 311 kts | 227° |
| 2026-04-29 21:00 | 41.80273 | 2.25515 | 11791 ft | 309 kts | 227° |
| 2026-04-29 21:00 | 41.78845 | 2.23372 | 11447 ft | 307 kts | 227° |
| 2026-04-29 21:00 | 41.77313 | 2.21400 | 11102 ft | 305 kts | 216° |
| 2026-04-29 21:01 | 41.75488 | 2.19974 | 10761 ft | 304 kts | 202° |
| 2026-04-29 21:01 | 41.73481 | 2.19103 | 10422 ft | 303 kts | 195° |
| 2026-04-29 21:01 | 41.71464 | 2.18345 | 10186 ft | 296 kts | 195° |
| 2026-04-29 21:01 | 41.69522 | 2.17610 | 10037 ft | 286 kts | 195° |
| 2026-04-29 21:02 | 41.67626 | 2.16888 | 9832 ft | 280 kts | 195° |
| 2026-04-29 21:02 | 41.65756 | 2.16180 | 9701 ft | 280 kts | 195° |
| 2026-04-29 21:02 | 41.63883 | 2.15472 | 9565 ft | 279 kts | 195° |
| 2026-04-29 21:02 | 41.62018 | 2.14767 | 9437 ft | 279 kts | 195° |
| 2026-04-29 21:03 | 41.60152 | 2.14062 | 9309 ft | 278 kts | 195° |
| 2026-04-29 21:03 | 41.58288 | 2.13357 | 9162 ft | 278 kts | 195° |
| 2026-04-29 21:03 | 41.56428 | 2.12653 | 8794 ft | 277 kts | 195° |
| 2026-04-29 21:03 | 41.54582 | 2.11954 | 8578 ft | 276 kts | 195° |
| 2026-04-29 21:04 | 41.52824 | 2.10952 | 8379 ft | 276 kts | 211° |
| 2026-04-29 21:04 | 41.51353 | 2.09320 | 8182 ft | 277 kts | 227° |
| 2026-04-29 21:04 | 41.50268 | 2.07240 | 7989 ft | 278 kts | 237° |
| 2026-04-29 21:04 | 41.49251 | 2.05010 | 7774 ft | 277 kts | 237° |
| 2026-04-29 21:05 | 41.48246 | 2.02816 | 7595 ft | 277 kts | 237° |
| 2026-04-29 21:05 | 41.47259 | 2.00661 | 7402 ft | 276 kts | 237° |
| 2026-04-29 21:05 | 41.46261 | 1.98482 | 7200 ft | 275 kts | 237° |
| 2026-04-29 21:05 | 41.45261 | 1.96307 | 7004 ft | 274 kts | 237° |
| 2026-04-29 21:06 | 41.44264 | 1.94138 | 6804 ft | 274 kts | 237° |
| 2026-04-29 21:06 | 41.43270 | 1.91977 | 6609 ft | 273 kts | 237° |
| 2026-04-29 21:06 | 41.42278 | 1.89823 | 6416 ft | 272 kts | 237° |
| 2026-04-29 21:06 | 41.41290 | 1.87677 | 6210 ft | 271 kts | 237° |
| 2026-04-29 21:07 | 41.40304 | 1.85537 | 6025 ft | 271 kts | 237° |
| 2026-04-29 21:07 | 41.39317 | 1.83400 | 5832 ft | 271 kts | 237° |
| 2026-04-29 21:07 | 41.38330 | 1.81265 | 5633 ft | 271 kts | 236° |
| 2026-04-29 21:07 | 41.37344 | 1.79131 | 5438 ft | 271 kts | 237° |
| 2026-04-29 21:08 | 41.36370 | 1.77020 | 5265 ft | 262 kts | 237° |
| 2026-04-29 21:08 | 41.35423 | 1.75015 | 5141 ft | 250 kts | 231° |
| 2026-04-29 21:08 | 41.34142 | 1.73579 | 4981 ft | 237 kts | 202° |
| 2026-04-29 21:08 | 41.32580 | 1.73144 | 4886 ft | 228 kts | 175° |
| 2026-04-29 21:09 | 41.31080 | 1.73666 | 4746 ft | 219 kts | 155° |
| 2026-04-29 21:09 | 41.29730 | 1.74489 | 4567 ft | 209 kts | 155° |
| 2026-04-29 21:09 | 41.28425 | 1.75279 | 4369 ft | 203 kts | 155° |
| 2026-04-29 21:09 | 41.27146 | 1.76050 | 4222 ft | 201 kts | 155° |
| 2026-04-29 21:10 | 41.25938 | 1.76975 | 4057 ft | 201 kts | 142° |
| 2026-04-29 21:10 | 41.24832 | 1.78124 | 3920 ft | 202 kts | 142° |
| 2026-04-29 21:10 | 41.23718 | 1.79268 | 3789 ft | 202 kts | 142° |
| 2026-04-29 21:10 | 41.22648 | 1.80467 | 3664 ft | 201 kts | 130° |
| 2026-04-29 21:11 | 41.21949 | 1.82052 | 3573 ft | 201 kts | 109° |
| 2026-04-29 21:11 | 41.21743 | 1.83887 | 3514 ft | 202 kts | 88° |
| 2026-04-29 21:11 | 41.22068 | 1.85699 | 3452 ft | 205 kts | 69° |
| 2026-04-29 21:11 | 41.22657 | 1.87405 | 3203 ft | 199 kts | 66° |
| 2026-04-29 21:12 | 41.23230 | 1.89028 | 3011 ft | 188 kts | 66° |
| 2026-04-29 21:12 | 41.23763 | 1.90568 | 2753 ft | 180 kts | 66° |
| 2026-04-29 21:12 | 41.24275 | 1.92054 | 2491 ft | 173 kts | 66° |
| 2026-04-29 21:12 | 41.24770 | 1.93480 | 2256 ft | 166 kts | 66° |
| 2026-04-29 21:13 | 41.25241 | 1.94853 | 2037 ft | 161 kts | 66° |
| 2026-04-29 21:13 | 41.25700 | 1.96182 | 1822 ft | 155 kts | 67° |
| 2026-04-29 21:13 | 41.26135 | 1.97443 | 1658 ft | 148 kts | 66° |
| 2026-04-29 21:13 | 41.26544 | 1.98630 | 1456 ft | 137 kts | 66° |
| 2026-04-29 21:14 | 41.26937 | 1.99780 | 1249 ft | 136 kts | 65° |
| 2026-04-29 21:14 | 41.27330 | 2.00921 | 1091 ft | 135 kts | 65° |
| 2026-04-29 21:14 | 41.27715 | 2.02048 | 913 ft | 133 kts | 65° |
| 2026-04-29 21:14 | 41.28103 | 2.03174 | 713 ft | 133 kts | 65° |
| 2026-04-29 21:15 | 41.28486 | 2.04289 | 536 ft | 133 kts | 66° |
| 2026-04-29 21:15 | 41.28878 | 2.05425 | 366 ft | 135 kts | 65° |
| 2026-04-29 21:15 | 41.29258 | 2.06533 | 181 ft | 133 kts | 65° |
| 2026-04-29 21:15 | 41.29636 | 2.07642 | 29 ft | 129 kts | 65° |
| 2026-04-29 21:16 | 41.29964 | 2.08594 | 24 ft | 90 kts | 66° |
| 2026-04-29 21:16 | 41.30136 | 2.09105 | 18 ft | 26 kts | 66° |
| 2026-04-29 21:16 | 41.30211 | 2.09303 | 17 ft | 23 kts | 57° |
| 2026-04-29 21:16 | 41.30312 | 2.09453 | 17 ft | 21 kts | 40° |
| 2026-04-29 21:17 | 41.30393 | 2.09530 | 19 ft | 10 kts | 28° |
| 2026-04-29 21:17 | 41.30460 | 2.09521 | 18 ft | 10 kts | 338° |
| 2026-04-29 21:17 | 41.30502 | 2.09454 | 19 ft | 10 kts | 269° |
| 2026-04-29 21:17 | 41.30479 | 2.09377 | 19 ft | 7 kts | 245° |
| 2026-04-29 21:18 | 41.30456 | 2.09312 | 19 ft | 8 kts | 244° |
| 2026-04-29 21:18 | 41.30431 | 2.09241 | 20 ft | 9 kts | 245° |
| 2026-04-29 21:18 | 41.30405 | 2.09164 | 21 ft | 10 kts | 246° |
| 2026-04-29 21:18 | 41.30372 | 2.09067 | 18 ft | 13 kts | 245° |
| 2026-04-29 21:19 | 41.30335 | 2.08958 | 18 ft | 13 kts | 246° |
| 2026-04-29 21:19 | 41.30301 | 2.08858 | 18 ft | 9 kts | 245° |
| 2026-04-29 21:19 | 41.30273 | 2.08775 | 19 ft | 10 kts | 245° |
| 2026-04-29 21:19 | 41.30243 | 2.08687 | 19 ft | 11 kts | 245° |
| 2026-04-29 21:20 | 41.30210 | 2.08593 | 19 ft | 12 kts | 245° |
| 2026-04-29 21:20 | 41.30206 | 2.08495 | 20 ft | 12 kts | 311° |
| 2026-04-29 21:20 | 41.30214 | 2.08388 | 18 ft | 13 kts | 244° |
| 2026-04-29 21:20 | 41.30173 | 2.08274 | 18 ft | 14 kts | 245° |
| 2026-04-29 21:21 | 41.30129 | 2.08148 | 17 ft | 16 kts | 244° |
| 2026-04-29 21:21 | 41.30080 | 2.08006 | 19 ft | 17 kts | 245° |
| 2026-04-29 21:21 | 41.30030 | 2.07860 | 18 ft | 17 kts | 246° |
| 2026-04-29 21:21 | 41.29993 | 2.07748 | 18 ft | 10 kts | 247° |
| 2026-04-29 21:22 | 41.29997 | 2.07706 | 17 ft | 1 kts | 301° |
| 2026-04-29 21:22 | 41.30007 | 2.07694 | 18 ft | 5 kts | 315° |
| 2026-04-29 21:22 | 41.30020 | 2.07647 | 18 ft | 6 kts | 269° |
| 2026-04-29 21:22 | 41.30007 | 2.07583 | 20 ft | 9 kts | 264° |
| 2026-04-29 21:23 | 41.30040 | 2.07527 | 20 ft | 6 kts | 333° |
| 2026-04-29 21:23 | 41.30056 | 2.07517 | 21 ft | 0 kts | 335° |
| 2026-04-29 21:23 | 41.30061 | 2.07514 | 21 ft | 0 kts | 335° |